EGPK - Prestwick Airport
Distance from station: E 5mi, 14km
Updated: 02/17/2018 10:20pm
Partly Cloudy
Partly Cloudy
 Wind from E
Wind: E 2 mph , 4 km/h
Temperature: 37°F , 3°C
Dew Point: 34°F , 1°C
Humidity: 87%
Barometer: 30.09 inHg , 1019 hPa
Clouds: Partly Cloudy
Visibility: 6 miles , 10 km
Cloud details: Partly Cloudy 4500 ft
2018/02/18 06:20 EGPK 180620Z 08002KT 9999 SCT045 03/01 Q1019